createdAt,value
2022-12-31T00:01:46.967Z,8.10
2022-12-31T00:04:18.984Z,8.10
2022-12-31T00:06:50.935Z,8.20
2022-12-31T00:09:22.908Z,8.30
2022-12-31T00:11:54.805Z,8.30
2022-12-31T00:14:26.720Z,8.40
2022-12-31T00:16:58.723Z,8.40
2022-12-31T00:19:30.636Z,8.40
2022-12-31T00:22:02.550Z,8.40
2022-12-31T00:24:35.973Z,8.40
2022-12-31T00:27:07.961Z,8.40
2022-12-31T00:29:39.951Z,8.30
2022-12-31T00:32:14.031Z,8.20
2022-12-31T00:34:45.917Z,8.20
2022-12-31T00:37:17.879Z,8.20
2022-12-31T00:39:53.591Z,8.10
2022-12-31T00:42:25.647Z,8.00
2022-12-31T00:44:59.959Z,8.10
2022-12-31T00:47:34.671Z,8.00
2022-12-31T00:50:07.082Z,8.00
2022-12-31T00:52:39.001Z,7.90
2022-12-31T00:55:10.964Z,8.00
2022-12-31T00:57:42.839Z,8.00
2022-12-31T01:00:15.680Z,8.00
2022-12-31T01:02:47.786Z,8.10
2022-12-31T01:05:19.818Z,8.20
2022-12-31T01:07:51.785Z,8.20
2022-12-31T01:10:42.179Z,8.20
2022-12-31T01:13:14.330Z,8.10
2022-12-31T01:15:46.448Z,8.10
2022-12-31T01:18:18.489Z,8.00
2022-12-31T01:20:50.509Z,8.10
2022-12-31T01:23:22.456Z,8.20
2022-12-31T01:25:54.348Z,8.20
2022-12-31T01:28:29.663Z,8.20
2022-12-31T01:31:14.912Z,8.00
2022-12-31T01:33:47.619Z,7.90
2022-12-31T01:36:26.000Z,7.90
2022-12-31T01:39:01.001Z,7.90
2022-12-31T01:41:44.649Z,8.00
2022-12-31T01:44:25.492Z,8.00
2022-12-31T01:47:01.077Z,8.00
2022-12-31T01:49:42.860Z,8.10
2022-12-31T01:52:45.446Z,8.00
2022-12-31T01:55:44.928Z,8.00
2022-12-31T01:58:27.775Z,8.00
2022-12-31T02:01:00.161Z,7.90
2022-12-31T02:03:32.259Z,7.90
2022-12-31T02:06:14.671Z,7.90
2022-12-31T02:08:46.672Z,7.90
2022-12-31T02:11:38.859Z,8.00
2022-12-31T02:14:36.025Z,8.00
2022-12-31T02:17:37.872Z,8.00
2022-12-31T02:20:12.681Z,8.10
2022-12-31T02:22:56.250Z,8.00
2022-12-31T02:25:56.800Z,8.00
2022-12-31T02:28:47.100Z,8.00
2022-12-31T02:31:25.412Z,7.90
2022-12-31T02:34:13.759Z,7.90
2022-12-31T02:36:47.985Z,7.80
2022-12-31T02:39:20.368Z,7.70
2022-12-31T02:41:52.811Z,7.80
2022-12-31T02:44:35.854Z,7.80
2022-12-31T02:47:28.798Z,7.70
2022-12-31T02:50:22.539Z,7.70
2022-12-31T02:53:18.226Z,7.70
2022-12-31T02:55:50.167Z,7.80
2022-12-31T02:58:55.694Z,7.70
2022-12-31T03:01:55.403Z,7.80
2022-12-31T03:04:32.537Z,7.80
2022-12-31T03:07:10.747Z,7.80
2022-12-31T03:09:42.696Z,7.70
2022-12-31T03:12:33.941Z,7.80
2022-12-31T03:15:19.871Z,7.80
2022-12-31T03:18:00.117Z,7.80
2022-12-31T03:20:52.716Z,7.80
2022-12-31T03:23:37.456Z,7.80
2022-12-31T03:26:11.101Z,7.80
2022-12-31T03:28:47.982Z,7.80
2022-12-31T03:31:20.176Z,7.80
2022-12-31T03:33:52.127Z,7.70
2022-12-31T03:36:24.060Z,7.80
2022-12-31T03:38:55.990Z,7.80
2022-12-31T03:41:27.940Z,7.80
2022-12-31T03:43:59.843Z,7.90
2022-12-31T03:46:31.829Z,7.90
2022-12-31T03:49:03.693Z,7.90
2022-12-31T03:51:35.613Z,8.00
2022-12-31T03:54:07.503Z,7.90
2022-12-31T03:56:39.359Z,7.90
2022-12-31T03:59:11.466Z,7.90
2022-12-31T04:01:43.445Z,7.90
2022-12-31T04:04:15.463Z,7.90
2022-12-31T04:06:47.359Z,7.90
2022-12-31T04:09:19.338Z,7.90
2022-12-31T04:11:51.733Z,7.90
2022-12-31T04:14:23.703Z,8.00
2022-12-31T04:16:55.622Z,8.10
2022-12-31T04:19:27.548Z,8.00
2022-12-31T04:21:59.491Z,8.00
2022-12-31T04:24:31.482Z,8.00
2022-12-31T04:27:07.579Z,8.00
2022-12-31T04:29:40.166Z,7.90
2022-12-31T04:32:17.991Z,8.00
2022-12-31T04:34:53.028Z,7.90
2022-12-31T04:37:24.960Z,8.00
2022-12-31T04:40:01.891Z,7.90
2022-12-31T04:42:37.708Z,7.90
2022-12-31T04:45:10.080Z,7.90
2022-12-31T04:47:42.083Z,7.90
2022-12-31T04:50:14.108Z,8.00
2022-12-31T04:52:46.065Z,8.10
2022-12-31T04:55:18.074Z,8.10
2022-12-31T04:57:50.114Z,8.20
2022-12-31T05:00:23.145Z,8.20
2022-12-31T05:02:55.052Z,8.10
2022-12-31T05:05:26.985Z,8.00
2022-12-31T05:07:58.959Z,8.00
2022-12-31T05:10:30.952Z,8.00
2022-12-31T05:13:02.887Z,8.10
2022-12-31T05:15:35.106Z,8.10
2022-12-31T05:18:07.420Z,8.20
2022-12-31T05:20:39.490Z,8.20
2022-12-31T05:23:11.815Z,8.30
2022-12-31T05:25:45.345Z,8.30
2022-12-31T05:28:17.960Z,8.20
2022-12-31T05:30:50.815Z,8.10
2022-12-31T05:33:23.198Z,8.20
2022-12-31T05:35:57.922Z,8.20
2022-12-31T05:38:30.014Z,8.20
2022-12-31T05:41:04.420Z,8.00
2022-12-31T05:43:36.526Z,8.00
2022-12-31T05:46:08.907Z,8.00
2022-12-31T05:48:40.938Z,8.00
2022-12-31T05:51:12.887Z,8.10
2022-12-31T05:53:44.953Z,8.10
2022-12-31T05:56:17.901Z,8.10
2022-12-31T05:58:49.904Z,8.20
2022-12-31T06:01:22.079Z,8.20
2022-12-31T06:03:54.049Z,8.20
2022-12-31T06:06:26.227Z,8.10
2022-12-31T06:08:58.178Z,8.10
2022-12-31T06:11:30.082Z,8.10
2022-12-31T06:14:02.298Z,8.10
2022-12-31T06:16:34.491Z,8.10
2022-12-31T06:19:06.879Z,8.00
2022-12-31T06:21:38.862Z,8.00
2022-12-31T06:24:10.772Z,8.10
2022-12-31T06:26:42.774Z,8.10
2022-12-31T06:29:14.838Z,8.00
2022-12-31T06:31:46.754Z,8.10
2022-12-31T06:34:18.803Z,8.10
2022-12-31T06:36:50.712Z,8.10
2022-12-31T06:39:22.840Z,8.00
2022-12-31T06:41:54.955Z,8.10
2022-12-31T06:44:26.939Z,8.20
2022-12-31T06:46:58.878Z,8.10
2022-12-31T06:49:30.798Z,8.20
2022-12-31T06:52:02.719Z,8.10
2022-12-31T06:54:34.863Z,8.10
2022-12-31T06:57:08.815Z,8.20
2022-12-31T06:59:41.041Z,8.30
2022-12-31T07:02:27.609Z,8.30
2022-12-31T07:05:12.148Z,8.20
2022-12-31T07:07:54.757Z,8.20
2022-12-31T07:10:30.368Z,8.10
2022-12-31T07:13:15.651Z,8.00
2022-12-31T07:16:00.095Z,8.10
2022-12-31T07:18:44.279Z,8.20
2022-12-31T07:21:19.551Z,8.20
2022-12-31T07:23:51.785Z,8.20
2022-12-31T07:26:57.285Z,8.20
2022-12-31T07:29:50.687Z,8.20
2022-12-31T07:32:45.579Z,8.30
2022-12-31T07:35:31.295Z,8.30
2022-12-31T07:38:26.802Z,8.40
2022-12-31T07:41:10.416Z,8.40
2022-12-31T07:44:12.690Z,8.30
2022-12-31T07:46:59.389Z,8.40
2022-12-31T07:49:34.252Z,8.40
2022-12-31T07:52:07.554Z,8.40
2022-12-31T07:54:39.460Z,8.50
2022-12-31T07:57:13.462Z,8.40
2022-12-31T08:00:02.339Z,8.40
2022-12-31T08:03:03.158Z,8.40
2022-12-31T08:06:12.568Z,8.50
2022-12-31T08:09:03.350Z,8.70
2022-12-31T08:11:43.307Z,8.60
2022-12-31T08:14:15.606Z,8.60
2022-12-31T08:16:48.443Z,8.70
2022-12-31T08:19:30.536Z,8.80
2022-12-31T08:22:23.801Z,8.90
2022-12-31T08:25:19.777Z,8.80
2022-12-31T08:28:20.046Z,8.80
2022-12-31T08:31:00.992Z,8.80
2022-12-31T08:33:48.333Z,8.90
2022-12-31T08:36:30.950Z,8.90
2022-12-31T08:39:22.060Z,9.10
2022-12-31T08:41:58.090Z,9.20
2022-12-31T08:45:17.914Z,9.20
2022-12-31T08:48:15.088Z,9.00
2022-12-31T08:50:47.158Z,9.00
2022-12-31T08:53:19.312Z,9.00
2022-12-31T08:56:00.857Z,9.00
2022-12-31T08:58:51.161Z,9.00
2022-12-31T09:01:28.190Z,9.00
2022-12-31T09:04:33.819Z,9.00
2022-12-31T09:07:07.615Z,9.10
2022-12-31T09:09:50.910Z,9.10
2022-12-31T09:12:32.196Z,9.10
2022-12-31T09:15:48.888Z,9.00
2022-12-31T09:18:21.199Z,9.00
2022-12-31T09:20:53.392Z,9.00
2022-12-31T09:23:25.576Z,9.10
2022-12-31T09:26:25.072Z,9.10
2022-12-31T09:29:17.616Z,9.30
2022-12-31T09:32:07.419Z,9.40
2022-12-31T09:34:45.332Z,9.30
2022-12-31T09:37:38.068Z,9.40
2022-12-31T09:40:33.432Z,9.50
2022-12-31T09:43:59.014Z,9.50
2022-12-31T09:46:53.279Z,9.50
2022-12-31T09:50:05.568Z,9.50
2022-12-31T09:53:06.370Z,9.50
2022-12-31T09:55:48.456Z,9.50
2022-12-31T09:58:38.843Z,9.50
2022-12-31T10:01:19.733Z,9.40
2022-12-31T10:04:15.943Z,9.50
2022-12-31T10:07:27.905Z,9.50
2022-12-31T10:10:26.498Z,9.50
2022-12-31T10:12:58.439Z,9.50
2022-12-31T10:16:09.917Z,9.50
2022-12-31T10:19:12.817Z,9.60
2022-12-31T10:21:59.314Z,9.70
2022-12-31T10:24:39.226Z,9.70
2022-12-31T10:27:21.319Z,9.80
2022-12-31T10:30:02.856Z,9.90
2022-12-31T10:32:53.139Z,10.00
2022-12-31T10:35:42.837Z,10.00
2022-12-31T10:38:41.930Z,10.00
2022-12-31T10:41:56.107Z,10.20
2022-12-31T10:44:46.098Z,10.20
2022-12-31T10:47:28.826Z,10.20
2022-12-31T10:50:31.585Z,10.20
2022-12-31T10:53:06.585Z,10.00
2022-12-31T10:55:50.836Z,10.10
2022-12-31T10:58:53.490Z,10.20
2022-12-31T11:01:33.824Z,10.20
2022-12-31T11:04:28.775Z,10.30
2022-12-31T11:07:18.466Z,10.30
2022-12-31T11:09:58.947Z,10.50
2022-12-31T11:12:49.669Z,10.60
2022-12-31T11:15:23.208Z,10.50
2022-12-31T11:18:20.305Z,10.60
2022-12-31T11:21:03.236Z,10.70
2022-12-31T11:23:44.501Z,10.60
2022-12-31T11:26:22.195Z,10.60
2022-12-31T11:29:09.696Z,10.40
2022-12-31T11:31:54.818Z,10.40
2022-12-31T11:34:38.939Z,10.50
2022-12-31T11:37:31.869Z,10.40
2022-12-31T11:40:31.476Z,10.40
2022-12-31T11:43:29.890Z,10.40
2022-12-31T11:46:14.060Z,10.50
2022-12-31T11:48:46.218Z,10.60
2022-12-31T11:51:42.108Z,10.70
2022-12-31T11:54:46.557Z,10.70
2022-12-31T11:57:33.979Z,10.80
2022-12-31T12:00:20.874Z,10.70
2022-12-31T12:02:59.158Z,10.60
2022-12-31T12:05:33.510Z,10.60
2022-12-31T12:08:06.377Z,10.60
2022-12-31T12:10:58.092Z,10.60
2022-12-31T12:13:30.080Z,10.70
2022-12-31T12:16:06.226Z,10.70
2022-12-31T12:18:50.930Z,10.80
2022-12-31T12:21:25.466Z,10.90
2022-12-31T12:24:01.430Z,10.90
2022-12-31T12:26:35.855Z,11.00
2022-12-31T12:29:15.326Z,11.10
2022-12-31T12:32:02.221Z,11.20
2022-12-31T12:34:41.964Z,11.10
2022-12-31T12:37:35.454Z,11.00
2022-12-31T12:40:33.632Z,11.10
2022-12-31T12:43:23.643Z,11.10
2022-12-31T12:46:00.701Z,11.00
2022-12-31T12:48:42.753Z,11.00
2022-12-31T12:51:17.474Z,10.90
2022-12-31T12:53:49.464Z,10.90
2022-12-31T12:56:36.139Z,10.90
2022-12-31T12:59:29.818Z,10.90
2022-12-31T13:02:26.619Z,10.80
2022-12-31T13:05:20.497Z,10.80
2022-12-31T13:08:23.351Z,10.90
2022-12-31T13:11:17.728Z,11.10
2022-12-31T13:14:01.560Z,11.10
2022-12-31T13:17:23.788Z,11.10
2022-12-31T13:20:07.275Z,11.10
2022-12-31T13:22:47.904Z,11.10
2022-12-31T13:25:25.930Z,11.10
2022-12-31T13:28:04.020Z,11.20
2022-12-31T13:30:43.050Z,11.20
2022-12-31T13:33:41.057Z,11.30
2022-12-31T13:36:23.434Z,11.30
2022-12-31T13:39:00.840Z,11.30
2022-12-31T13:41:53.036Z,11.10
2022-12-31T13:44:30.870Z,11.10
2022-12-31T13:47:08.988Z,11.00
2022-12-31T13:49:48.390Z,11.10
2022-12-31T13:52:41.236Z,11.10
2022-12-31T13:55:37.135Z,11.20
2022-12-31T13:58:28.528Z,11.30
2022-12-31T14:01:18.925Z,11.40
2022-12-31T14:04:10.369Z,11.30
2022-12-31T14:07:00.132Z,11.20
2022-12-31T14:09:34.743Z,11.20
2022-12-31T14:12:23.920Z,11.10
2022-12-31T14:15:18.270Z,11.10
2022-12-31T14:18:05.086Z,11.00
2022-12-31T14:20:57.279Z,11.00
2022-12-31T14:23:48.013Z,11.10
2022-12-31T14:26:27.636Z,11.10
2022-12-31T14:29:12.113Z,11.00
2022-12-31T14:31:50.170Z,11.10
2022-12-31T14:34:47.578Z,11.20
2022-12-31T14:38:00.521Z,11.20
2022-12-31T14:40:44.902Z,11.30
2022-12-31T14:43:25.827Z,11.30
2022-12-31T14:46:10.524Z,11.20
2022-12-31T14:49:01.759Z,11.10
2022-12-31T14:51:37.123Z,11.00
2022-12-31T14:54:39.789Z,11.00
2022-12-31T14:57:24.422Z,11.00
2022-12-31T15:00:01.902Z,11.00
2022-12-31T15:02:35.428Z,10.90
2022-12-31T15:05:10.744Z,11.10
2022-12-31T15:07:48.919Z,11.00
2022-12-31T15:10:36.177Z,10.90
2022-12-31T15:13:17.241Z,11.00
2022-12-31T15:15:58.818Z,11.00
2022-12-31T15:18:44.926Z,11.00
2022-12-31T15:21:53.163Z,11.10
2022-12-31T15:24:28.035Z,11.00
2022-12-31T15:27:06.165Z,11.00
2022-12-31T15:29:45.362Z,10.90
2022-12-31T15:32:27.188Z,10.90
2022-12-31T15:35:26.920Z,10.80
2022-12-31T15:38:01.995Z,10.70
2022-12-31T15:40:46.977Z,10.70
2022-12-31T15:43:25.031Z,10.70
2022-12-31T15:45:58.366Z,10.60
2022-12-31T15:48:55.437Z,10.60
2022-12-31T15:51:56.177Z,10.60
2022-12-31T15:54:37.491Z,10.60
2022-12-31T15:57:29.205Z,10.50
2022-12-31T16:00:05.549Z,10.50
2022-12-31T16:02:43.111Z,10.60
2022-12-31T16:05:24.465Z,10.60
2022-12-31T16:07:59.274Z,10.60
2022-12-31T16:10:32.637Z,10.70
2022-12-31T16:13:06.218Z,10.60
2022-12-31T16:15:38.943Z,10.50
2022-12-31T16:18:20.598Z,10.40
2022-12-31T16:20:54.895Z,10.40
2022-12-31T16:23:28.040Z,10.50
2022-12-31T16:26:02.159Z,10.40
2022-12-31T16:28:34.427Z,10.40
2022-12-31T16:31:08.040Z,10.40
2022-12-31T16:33:40.073Z,10.40
2022-12-31T16:36:23.441Z,10.30
2022-12-31T16:39:26.082Z,10.30
2022-12-31T16:42:09.800Z,10.30
2022-12-31T16:44:42.180Z,10.30
2022-12-31T16:47:20.151Z,10.30
2022-12-31T16:50:04.096Z,10.40
2022-12-31T16:52:39.251Z,10.30
2022-12-31T16:55:23.390Z,10.30
2022-12-31T16:58:06.874Z,10.20
2022-12-31T17:00:39.286Z,10.20
2022-12-31T17:03:24.003Z,10.30
2022-12-31T17:06:09.545Z,10.20
2022-12-31T17:08:43.336Z,10.30
2022-12-31T17:11:48.225Z,10.20
2022-12-31T17:14:23.282Z,10.30
2022-12-31T17:17:02.605Z,10.30
2022-12-31T17:19:35.778Z,10.30
2022-12-31T17:22:32.854Z,10.30
2022-12-31T17:25:20.333Z,10.30
2022-12-31T17:28:07.212Z,10.20
2022-12-31T17:30:40.336Z,10.20
2022-12-31T17:33:12.280Z,10.20
2022-12-31T17:35:45.172Z,10.30
2022-12-31T17:38:25.609Z,10.30
2022-12-31T17:41:06.291Z,10.20
2022-12-31T17:43:39.438Z,10.30
2022-12-31T17:46:14.945Z,10.30
2022-12-31T17:48:52.427Z,10.30
2022-12-31T17:51:24.856Z,10.30
2022-12-31T17:53:58.624Z,10.30
2022-12-31T17:56:30.600Z,10.30
2022-12-31T17:59:06.612Z,10.40
2022-12-31T18:01:38.783Z,10.40
2022-12-31T18:04:19.100Z,10.30
2022-12-31T18:06:51.125Z,10.20
2022-12-31T18:09:23.187Z,10.10
2022-12-31T18:11:58.283Z,10.20
2022-12-31T18:14:33.805Z,10.20
2022-12-31T18:17:09.671Z,10.20
2022-12-31T18:20:07.067Z,10.20
2022-12-31T18:22:34.212Z,10.20
2022-12-31T18:25:07.344Z,10.30
2022-12-31T18:27:41.993Z,10.30
2022-12-31T18:30:16.502Z,10.40
2022-12-31T18:32:48.659Z,10.40
2022-12-31T18:38:16.963Z,10.50
2022-12-31T18:40:58.231Z,10.40
2022-12-31T18:43:30.147Z,10.30
2022-12-31T18:46:02.145Z,10.40
2022-12-31T18:48:34.123Z,10.30
2022-12-31T18:51:06.145Z,10.30
2022-12-31T18:53:38.082Z,10.30
2022-12-31T18:56:16.125Z,10.40
2022-12-31T18:58:48.307Z,10.60
2022-12-31T19:01:34.880Z,10.50
2022-12-31T19:04:28.014Z,10.50
2022-12-31T19:07:00.500Z,10.40
2022-12-31T19:09:51.391Z,10.50
2022-12-31T19:12:24.590Z,10.60
2022-12-31T19:14:56.563Z,10.40
2022-12-31T19:17:28.451Z,10.40
2022-12-31T19:20:04.453Z,10.30
2022-12-31T19:22:36.332Z,10.20
2022-12-31T19:25:23.813Z,10.20
2022-12-31T19:27:55.849Z,10.20
2022-12-31T19:30:32.988Z,10.10
2022-12-31T19:33:04.972Z,10.10
2022-12-31T19:35:38.528Z,10.00
2022-12-31T19:38:23.094Z,10.10
2022-12-31T19:40:55.553Z,10.10
2022-12-31T19:43:27.717Z,10.20
2022-12-31T19:46:03.727Z,10.20
2022-12-31T19:48:36.213Z,10.20
2022-12-31T19:51:14.993Z,10.30
2022-12-31T19:53:48.454Z,10.30
2022-12-31T19:56:20.607Z,10.30
2022-12-31T19:58:52.534Z,10.40
2022-12-31T20:01:25.479Z,10.30
2022-12-31T20:03:57.568Z,10.30
2022-12-31T20:06:29.519Z,10.30
2022-12-31T20:09:03.375Z,10.40
2022-12-31T20:11:54.389Z,10.30
2022-12-31T20:14:26.448Z,10.20
2022-12-31T20:16:58.657Z,10.20
2022-12-31T20:19:30.799Z,10.20
2022-12-31T20:22:02.991Z,10.20
2022-12-31T20:24:34.901Z,10.20
2022-12-31T20:27:10.985Z,10.20
2022-12-31T20:29:46.943Z,10.10
2022-12-31T20:32:19.032Z,10.10
2022-12-31T20:34:51.050Z,10.10
2022-12-31T20:37:23.075Z,10.10
2022-12-31T20:39:54.980Z,10.20
2022-12-31T20:42:27.033Z,10.10
2022-12-31T20:44:59.005Z,10.20
2022-12-31T20:47:30.929Z,10.10
2022-12-31T20:50:12.024Z,10.20
2022-12-31T20:52:44.688Z,10.20
2022-12-31T20:55:18.172Z,10.20
2022-12-31T20:57:50.160Z,10.20
2022-12-31T21:00:22.207Z,10.10
2022-12-31T21:03:04.918Z,10.10
2022-12-31T21:05:48.020Z,10.00
2022-12-31T21:08:20.880Z,10.00
2022-12-31T21:10:52.908Z,10.10
2022-12-31T21:13:25.135Z,10.10
2022-12-31T21:15:57.096Z,10.00
2022-12-31T21:18:29.065Z,10.00
2022-12-31T21:21:01.408Z,10.00
2022-12-31T21:23:33.462Z,10.00
2022-12-31T21:26:05.845Z,10.00
2022-12-31T21:28:37.816Z,10.00
2022-12-31T21:31:12.976Z,10.00
2022-12-31T21:33:47.105Z,10.10
2022-12-31T21:36:19.151Z,10.20
2022-12-31T21:38:51.192Z,10.20
2022-12-31T21:41:41.720Z,10.20
2022-12-31T21:44:13.758Z,10.10
2022-12-31T21:47:15.788Z,10.10
2022-12-31T21:49:37.798Z,10.00
2022-12-31T21:52:28.550Z,10.00
2022-12-31T21:55:20.988Z,10.00
2022-12-31T21:58:25.190Z,10.00
2022-12-31T22:01:03.918Z,10.00
2022-12-31T22:03:35.971Z,10.10
2022-12-31T22:06:16.294Z,10.00
2022-12-31T22:08:54.379Z,10.10
2022-12-31T22:11:28.082Z,10.00
2022-12-31T22:14:00.047Z,10.00
2022-12-31T22:16:32.058Z,10.00
2022-12-31T22:19:04.191Z,10.00
2022-12-31T22:21:36.183Z,10.00
2022-12-31T22:24:08.820Z,10.00
2022-12-31T22:26:46.412Z,10.10
2022-12-31T22:29:19.839Z,10.10
2022-12-31T22:31:54.509Z,10.00
2022-12-31T22:34:29.979Z,10.10
2022-12-31T22:37:14.391Z,10.20
2022-12-31T22:39:53.859Z,10.30
2022-12-31T22:42:25.815Z,10.30
2022-12-31T22:44:57.730Z,10.20
2022-12-31T22:47:29.617Z,10.10
2022-12-31T22:50:01.597Z,10.10
2022-12-31T22:52:33.549Z,10.10
2022-12-31T22:55:05.954Z,10.20
2022-12-31T22:57:37.966Z,10.20
2022-12-31T23:00:13.739Z,10.30
2022-12-31T23:02:46.254Z,10.20
2022-12-31T23:05:18.193Z,10.40
2022-12-31T23:07:50.115Z,10.70
2022-12-31T23:10:40.504Z,10.80
2022-12-31T23:13:31.369Z,10.70
2022-12-31T23:16:22.239Z,10.60
2022-12-31T23:19:12.678Z,10.50
2022-12-31T23:22:03.499Z,10.40
2022-12-31T23:24:35.532Z,10.40
2022-12-31T23:27:08.553Z,10.40
2022-12-31T23:29:46.718Z,10.40
2022-12-31T23:32:19.870Z,10.30
2022-12-31T23:34:53.441Z,10.30
2022-12-31T23:37:25.399Z,10.20
2022-12-31T23:39:57.422Z,10.10
2022-12-31T23:42:29.336Z,10.10
2022-12-31T23:45:01.344Z,10.10
2022-12-31T23:47:33.272Z,10.20
2022-12-31T23:50:06.220Z,10.20
2022-12-31T23:52:38.202Z,10.20
2022-12-31T23:55:10.144Z,10.20
2022-12-31T23:57:42.032Z,10.20
